Historique des mesures à Cassis (13260), France
Quotidien Résumé Avril 7, 2017 Unités:  US    Métrique   Métrique/US
« Précédent (Jour)
Suivant (Jour) »
Quotidien Hebdomadaire Mensuel Annuel Période au choix
  Maximum: Minimum: Moyenne:
Température: 32 °F 54.1 °F 59.4 °F
Point de rosée: 32 °F 43.2 °F 48 °F
Humidité: Humidity % 62 % 63 %
Vitesse du vent: WindSpeedKMH mph 0.0 mph 2 mph
Rafales: WindSpeedGustKMH mph - -
Vent:- - East
Pression: 0 in 30 in -
Précipitations: 0 in    
Historical Graphs
 
 
Mesures pour : Avril 7, 2017
Heure Temperature Point de rosée Pression Vent Vitesse du vent Rafales Humidité Pluie (par heure) Conditions
32 °F 32 °F 0 in Calm     Humidity % 0 in SoftwareType W/m2
00:11 58.1 °F 45.1 °F 30 in North 2.1 mph 4.7 mph 62 % 0 in open2300-1.11 W/m2
01:11 57 °F 44.4 °F 30 in Calm     63 % 0 in open2300-1.11 W/m2
02:11 55.9 °F 43.9 °F 30 in North 2.6 mph 2.6 mph 64 % 0 in open2300-1.11 W/m2
03:11 55.2 °F 43.2 °F 30 in Calm     64 % 0 in open2300-1.11 W/m2
04:11 54.3 °F 43.2 °F 30 in NNE 4.0 mph 4.0 mph 66 % 0 in open2300-1.11 W/m2
05:11 54.3 °F 43.2 °F 30 in Calm   1.4 mph 66 % 0 in open2300-1.11 W/m2
06:11 54.1 °F 43.9 °F 30 in North 2.1 mph 2.1 mph 68 % 0 in open2300-1.11 W/m2
07:11 55.2 °F 43.5 °F 30 in North 1.8 mph 2.1 mph 65 % 0 in open2300-1.11 W/m2
08:11 55.6 °F 44.1 °F 30 in Calm     65 % 0 in open2300-1.11 W/m2
09:11 57.9 °F 46.2 °F 30 in Calm     65 % 0 in open2300-1.11 W/m2
10:11 59.2 °F 47.8 °F 30 in Calm   3.2 mph 66 % 0 in open2300-1.11 W/m2
11:11 63.1 °F 51.4 °F 30 in South 5.8 mph 8.2 mph 66 % 0 in open2300-1.11 W/m2
12:11 66.9 °F 54 °F 30 in South 4.3 mph 4.3 mph 63 % 0 in open2300-1.11 W/m2
13:11 67.8 °F 54.7 °F 30 in Calm   3.2 mph 63 % 0 in open2300-1.11 W/m2
14:11 68.2 °F 55.6 °F 30 in South 4.3 mph 5.5 mph 64 % 0 in open2300-1.11 W/m2
15:11 67.8 °F 54.7 °F 30 in South 6.8 mph 6.8 mph 63 % 0 in open2300-1.11 W/m2
16:11 66.9 °F 54.7 °F 30 in SSE 5.0 mph 7.2 mph 65 % 0 in open2300-1.11 W/m2
17:11 65.8 °F 54.1 °F 30 in SW 4.7 mph 7.2 mph 66 % 0 in open2300-1.11 W/m2
18:11 65.3 °F 53.2 °F 30 in SSE 2.1 mph 2.9 mph 65 % 0 in open2300-1.11 W/m2
19:11 63.7 °F 52.2 °F 30 in Calm     66 % 0 in open2300-1.11 W/m2
20:11 62.2 °F 52.3 °F 30 in Calm     70 % 0 in open2300-1.11 W/m2
21:11 60.1 °F 49.1 °F 30 in Calm   8.2 mph 67 % 0 in open2300-1.11 W/m2
22:11 58.8 °F 47.8 °F 30 in North 1.8 mph 1.8 mph 67 % 0 in open2300-1.11 W/m2
23:11 57.6 °F 47.5 °F 30 in North 2.1 mph 4.7 mph 69 % 0 in open2300-1.11 W/m2
Observations météo à CASSIS
WU-History script by Weather Underground - 1 mb